Time;durP1;ratioP1;P1;durP2;ratioP2;P2;SDS_P1;SDS_P2;PMS_P1;PMS_P2;Temp;Humidity;BMP_temperature;BMP_pressure;BME280_temperature;BME280_humidity;BME280_pressure;Samples;Min_cycle;Max_cycle;Signal;HPM_P1;HPM_P2
2021/11/21 00:00:41;;;;;;;1.75;0.85;;;19.60;53.50;;;;;;4787864;30;20164;-79
2021/11/21 00:03:07;;;;;;;1.70;0.90;;;19.60;53.60;;;;;;4771701;30;20164;-79
2021/11/21 00:05:33;;;;;;;1.75;1.08;;;19.50;53.50;;;;;;4787692;30;20223;-79
2021/11/21 00:07:58;;;;;;;1.63;0.90;;;19.60;53.40;;;;;;4787920;30;20590;-78
2021/11/21 00:10:24;;;;;;;1.77;0.80;;;19.60;53.30;;;;;;4787759;30;20164;-79
2021/11/21 00:12:50;;;;;;;1.45;0.70;;;19.60;53.50;;;;;;4771861;30;20639;-79
2021/11/21 00:15:16;;;;;;;2.47;0.88;;;19.50;53.50;;;;;;4787629;30;20659;-79
2021/11/21 00:17:41;;;;;;;1.60;0.82;;;19.60;53.70;;;;;;4787834;30;20195;-79
2021/11/21 00:20:10;;;;;;;1.30;0.80;;;19.50;53.40;;;;;;4787759;30;20636;-79
2021/11/21 00:22:36;;;;;;;1.65;0.85;;;19.60;53.30;;;;;;4787856;30;20175;-79
2021/11/21 00:25:03;;;;;;;1.33;0.63;;;19.60;53.50;;;;;;4787895;30;20178;-79
2021/11/21 00:27:29;;;;;;;2.10;0.90;;;19.60;53.30;;;;;;4771739;30;20251;-78
2021/11/21 00:29:54;;;;;;;1.42;0.85;;;19.50;53.30;;;;;;4771607;30;20235;-79
2021/11/21 00:32:20;;;;;;;1.80;0.98;;;19.60;53.40;;;;;;4787553;30;20212;-79
2021/11/21 00:34:48;;;;;;;2.63;0.90;;;19.60;53.50;;;;;;4787533;30;20298;-79
2021/11/21 00:37:14;;;;;;;1.75;0.77;;;19.60;53.50;;;;;;4771876;30;20620;-79
2021/11/21 00:39:39;;;;;;;1.13;0.70;;;19.50;53.50;;;;;;4771775;30;20164;-79
2021/11/21 00:42:05;;;;;;;2.58;0.75;;;19.50;53.40;;;;;;4771497;30;20539;-79
2021/11/21 00:44:31;;;;;;;1.27;0.65;;;19.50;53.40;;;;;;4773050;30;20647;-79
2021/11/21 00:46:56;;;;;;;1.05;0.82;;;19.50;53.40;;;;;;4790858;30;20175;-79
2021/11/21 00:49:22;;;;;;;1.30;0.77;;;19.50;53.40;;;;;;4790802;30;20582;-79
2021/11/21 00:51:49;;;;;;;1.05;0.80;;;19.50;53.50;;;;;;4790914;30;20666;-79
2021/11/21 00:56:54;;;;;;;0.82;0.70;;;19.50;53.30;;;;;;4790600;30;20240;-79
2021/11/21 00:59:20;;;;;;;1.20;0.75;;;19.50;53.20;;;;;;4790441;30;20667;-78
2021/11/21 01:01:47;;;;;;;1.77;0.80;;;19.50;53.00;;;;;;4774567;30;20181;-79
2021/11/21 01:04:13;;;;;;;1.83;0.77;;;19.50;53.10;;;;;;4774489;30;20167;-79
2021/11/21 01:06:39;;;;;;;1.77;1.08;;;19.50;53.50;;;;;;4774220;30;20219;-79
2021/11/21 01:09:05;;;;;;;1.25;0.80;;;19.50;53.40;;;;;;4790321;30;20163;-79
2021/11/21 01:11:31;;;;;;;0.98;0.80;;;19.50;53.40;;;;;;4774297;30;20179;-79
2021/11/21 01:13:56;;;;;;;2.72;0.80;;;19.50;53.30;;;;;;4790241;30;20619;-78
2021/11/21 01:16:22;;;;;;;1.38;0.70;;;19.50;53.20;;;;;;4790398;30;20248;-79
2021/11/21 01:18:48;;;;;;;3.15;0.80;;;19.50;53.30;;;;;;4790085;30;20191;-79
2021/11/21 01:21:13;;;;;;;1.25;0.90;;;19.50;53.10;;;;;;4790074;30;20175;-79
2021/11/21 01:23:39;;;;;;;1.13;0.75;;;19.50;53.20;;;;;;4790104;30;20159;-79
2021/11/21 01:26:05;;;;;;;1.27;0.90;;;19.50;53.20;;;;;;4790359;30;20178;-79
2021/11/21 01:28:30;;;;;;;1.75;0.80;;;19.50;53.10;;;;;;4790023;30;20181;-79
2021/11/21 01:30:56;;;;;;;1.67;0.70;;;19.50;53.10;;;;;;4790161;30;20163;-79
2021/11/21 01:33:22;;;;;;;1.05;0.90;;;19.50;53.40;;;;;;4789877;30;20627;-79
2021/11/21 01:35:48;;;;;;;0.70;0.70;;;19.50;53.10;;;;;;4773890;30;20686;-79
2021/11/21 01:38:13;;;;;;;1.88;0.80;;;19.50;53.20;;;;;;4773826;30;20229;-79
2021/11/21 01:40:39;;;;;;;1.30;0.70;;;19.50;53.20;;;;;;4773723;30;20172;-79
2021/11/21 01:43:05;;;;;;;1.38;0.70;;;19.50;53.00;;;;;;4773692;30;20585;-79
2021/11/21 01:45:32;;;;;;;2.08;0.88;;;19.50;53.60;;;;;;4789744;30;20579;-79
2021/11/21 01:47:58;;;;;;;2.22;0.95;;;19.50;52.90;;;;;;4773695;30;20164;-79
2021/11/21 01:50:26;;;;;;;1.15;0.60;;;19.50;53.00;;;;;;4789879;30;20167;-79
2021/11/21 01:52:52;;;;;;;0.93;0.52;;;19.50;52.90;;;;;;4773667;30;20170;-79
2021/11/21 01:55:18;;;;;;;1.33;0.90;;;19.50;52.90;;;;;;4773300;30;20164;-79
2021/11/21 01:57:43;;;;;;;1.65;1.00;;;19.50;52.90;;;;;;4789662;30;20244;-78
2021/11/21 02:00:10;;;;;;;0.80;0.70;;;19.50;53.20;;;;;;4789642;30;20172;-79
2021/11/21 02:02:36;;;;;;;1.10;0.70;;;19.50;53.00;;;;;;4789409;30;20194;-79
2021/11/21 02:05:02;;;;;;;1.20;0.80;;;19.50;53.00;;;;;;4789210;30;20675;-79
2021/11/21 02:07:30;;;;;;;2.50;1.00;;;19.50;53.30;;;;;;4789047;30;20176;-78
2021/11/21 02:09:56;;;;;;;1.70;0.70;;;19.50;53.20;;;;;;4789599;30;20168;-79
2021/11/21 02:12:22;;;;;;;1.45;0.90;;;19.50;53.20;;;;;;4789503;30;20171;-78
2021/11/21 02:14:47;;;;;;;1.55;0.73;;;19.50;53.00;;;;;;4789369;30;20516;-79
2021/11/21 02:17:13;;;;;;;1.35;0.70;;;19.50;52.90;;;;;;4789159;30;20164;-79
2021/11/21 02:19:38;;;;;;;3.38;0.80;;;19.50;52.70;;;;;;4789255;30;20539;-78
2021/11/21 02:22:04;;;;;;;2.03;0.80;;;19.50;53.00;;;;;;4789268;30;20220;-79
2021/11/21 02:24:30;;;;;;;1.13;0.80;;;19.50;53.00;;;;;;4788955;30;20258;-78
2021/11/21 02:26:56;;;;;;;1.90;0.90;;;19.50;52.90;;;;;;4788944;30;20175;-79
2021/11/21 02:29:21;;;;;;;0.70;0.70;;;19.50;53.10;;;;;;4772931;30;20182;-79
2021/11/21 02:31:47;;;;;;;1.52;0.80;;;19.50;53.20;;;;;;4788916;30;20160;-79
2021/11/21 02:34:13;;;;;;;1.30;0.90;;;19.50;53.00;;;;;;4788816;30;20167;-79
2021/11/21 02:36:43;;;;;;;0.90;0.80;;;19.50;53.10;;;;;;4772652;30;20238;-79
2021/11/21 02:39:10;;;;;;;1.20;0.77;;;19.50;52.90;;;;;;4788680;30;20678;-79
2021/11/21 02:41:35;;;;;;;1.17;0.90;;;19.50;52.90;;;;;;4758042;30;20171;-79
2021/11/21 02:44:01;;;;;;;2.92;0.70;;;19.50;53.00;;;;;;4788551;30;20171;-79
2021/11/21 02:46:30;;;;;;;2.60;0.80;;;19.50;52.90;;;;;;4772591;30;20160;-79
2021/11/21 02:48:56;;;;;;;1.70;0.80;;;19.50;52.80;;;;;;4788645;30;20619;-79
2021/11/21 02:51:22;;;;;;;1.50;0.80;;;19.50;52.80;;;;;;4788608;30;20164;-79
2021/11/21 02:53:48;;;;;;;1.75;0.85;;;19.50;52.70;;;;;;4788521;30;20309;-79
2021/11/21 02:56:16;;;;;;;1.05;0.90;;;19.50;52.60;;;;;;4788600;30;20596;-79
2021/11/21 02:58:42;;;;;;;1.55;0.75;;;19.50;52.60;;;;;;4772468;30;20282;-79
2021/11/21 03:01:12;;;;;;;2.20;0.93;;;19.50;52.60;;;;;;4772418;30;20243;-78
2021/11/21 03:03:38;;;;;;;1.08;0.85;;;19.50;52.60;;;;;;4772597;30;20160;-79
2021/11/21 03:06:04;;;;;;;1.02;0.73;;;19.50;52.60;;;;;;4771926;29;20558;-79
2021/11/21 03:08:32;;;;;;;0.90;0.77;;;19.50;52.60;;;;;;4788081;30;20262;-79
2021/11/21 03:10:57;;;;;;;1.00;0.70;;;19.50;52.60;;;;;;4788415;30;20614;-79
2021/11/21 03:13:23;;;;;;;1.63;0.80;;;19.50;52.60;;;;;;4788270;30;20675;-79
2021/11/21 03:15:49;;;;;;;1.52;0.70;;;19.50;52.60;;;;;;4788576;30;20174;-78
2021/11/21 03:18:15;;;;;;;1.33;0.80;;;19.50;52.60;;;;;;4788380;30;20207;-79
2021/11/21 03:20:40;;;;;;;0.65;0.63;;;19.50;52.70;;;;;;4788470;30;20178;-78
2021/11/21 03:23:06;;;;;;;1.48;0.68;;;19.50;52.60;;;;;;4788590;30;20187;-79
2021/11/21 03:25:33;;;;;;;1.88;0.90;;;19.50;52.50;;;;;;4788149;30;20168;-79
2021/11/21 03:27:59;;;;;;;0.80;0.60;;;19.50;52.50;;;;;;4788209;30;20164;-79
2021/11/21 03:30:24;;;;;;;1.00;0.60;;;19.50;52.60;;;;;;4788162;30;20175;-79
2021/11/21 03:32:51;;;;;;;1.42;0.80;;;19.50;52.60;;;;;;4788343;30;20626;-79
2021/11/21 03:35:16;;;;;;;1.55;0.88;;;19.50;52.50;;;;;;4788135;30;20701;-79
2021/11/21 03:37:42;;;;;;;0.90;0.70;;;19.50;52.60;;;;;;4787955;30;20203;-78
2021/11/21 03:40:11;;;;;;;1.15;0.80;;;19.50;52.50;;;;;;4788030;30;20261;-79
2021/11/21 03:42:37;;;;;;;1.40;0.98;;;19.40;52.50;;;;;;4788229;30;20164;-79
2021/11/21 03:45:03;;;;;;;1.27;0.77;;;19.50;52.50;;;;;;4788038;30;20634;-79
2021/11/21 03:47:29;;;;;;;1.40;0.75;;;19.50;52.50;;;;;;4788064;30;20166;-79
2021/11/21 03:49:55;;;;;;;1.08;0.80;;;19.50;52.50;;;;;;4788306;30;20164;-79
2021/11/21 03:52:20;;;;;;;0.60;0.60;;;19.50;52.40;;;;;;4788216;30;20188;-79
2021/11/21 03:54:46;;;;;;;1.38;0.70;;;19.50;52.40;;;;;;4788224;30;20178;-79
2021/11/21 03:57:11;;;;;;;1.25;0.80;;;19.50;52.50;;;;;;4788185;30;20222;-79
2021/11/21 03:59:37;;;;;;;1.33;0.90;;;19.50;52.50;;;;;;4788100;30;20199;-79
2021/11/21 04:02:03;;;;;;;1.33;0.68;;;19.50;52.50;;;;;;4788167;30;20523;-79
2021/11/21 04:04:29;;;;;;;1.17;0.80;;;19.50;52.50;;;;;;4771968;30;20226;-79
2021/11/21 04:06:55;;;;;;;2.65;0.90;;;19.50;52.50;;;;;;4787681;30;20637;-79
2021/11/21 04:09:21;;;;;;;2.25;0.80;;;19.50;52.50;;;;;;4788019;30;20180;-79
2021/11/21 04:11:47;;;;;;;1.17;0.75;;;19.50;52.50;;;;;;4788036;30;20164;-79
2021/11/21 04:14:12;;;;;;;0.90;0.80;;;19.50;52.50;;;;;;4787899;30;20164;-79
2021/11/21 04:16:38;;;;;;;1.73;0.80;;;19.50;52.50;;;;;;4787692;30;20651;-79
2021/11/21 04:19:06;;;;;;;1.48;0.77;;;19.50;52.50;;;;;;4790311;29;20199;-79
2021/11/21 04:21:31;;;;;;;0.90;0.65;;;19.50;52.50;;;;;;4791203;30;20632;-79
2021/11/21 04:23:57;;;;;;;1.77;0.73;;;19.50;52.50;;;;;;4791069;30;20163;-79
2021/11/21 04:26:24;;;;;;;1.00;0.82;;;19.50;52.50;;;;;;4791386;30;20163;-78
2021/11/21 04:28:51;;;;;;;1.13;0.73;;;19.50;52.50;;;;;;4791286;30;20246;-79
2021/11/21 04:31:16;;;;;;;0.93;0.60;;;19.50;52.50;;;;;;4790956;30;20191;-79
2021/11/21 04:33:42;;;;;;;1.10;0.60;;;19.50;52.50;;;;;;4791178;30;20628;-79
2021/11/21 04:36:08;;;;;;;1.25;0.70;;;19.40;52.40;;;;;;4791133;30;20267;-79
2021/11/21 04:38:34;;;;;;;1.30;0.73;;;19.50;52.50;;;;;;4790891;30;20195;-79
2021/11/21 04:40:59;;;;;;;0.77;0.73;;;19.50;53.10;;;;;;4790874;30;20250;-79
2021/11/21 04:43:25;;;;;;;1.80;0.68;;;19.50;52.50;;;;;;4791075;30;20170;-79
2021/11/21 04:45:53;;;;;;;1.33;0.73;;;19.50;52.40;;;;;;4790763;30;20199;-79
2021/11/21 04:48:18;;;;;;;1.45;0.85;;;19.50;52.40;;;;;;4790933;30;20179;-79
2021/11/21 04:50:44;;;;;;;0.95;0.75;;;19.50;52.40;;;;;;4790965;30;20671;-79
2021/11/21 04:53:10;;;;;;;1.98;0.80;;;19.50;52.50;;;;;;4790957;30;20620;-79
2021/11/21 04:55:36;;;;;;;1.73;1.00;;;19.50;52.40;;;;;;4790544;30;20191;-80
2021/11/21 04:58:01;;;;;;;1.25;0.88;;;19.50;52.40;;;;;;4790750;30;20282;-79
2021/11/21 05:00:28;;;;;;;0.68;0.50;;;19.40;52.30;;;;;;4790952;30;20619;-79
2021/11/21 05:02:53;;;;;;;1.05;0.75;;;19.50;52.40;;;;;;4790698;30;20175;-79
2021/11/21 05:05:21;;;;;;;1.00;0.80;;;19.40;52.30;;;;;;4790595;30;20706;-79
2021/11/21 05:07:47;;;;;;;2.03;0.70;;;19.50;52.40;;;;;;4790408;30;20267;-79
2021/11/21 05:10:12;;;;;;;1.25;1.00;;;19.40;52.30;;;;;;4790391;30;20670;-79
2021/11/21 05:12:38;;;;;;;1.48;0.80;;;19.40;52.30;;;;;;4774514;30;20172;-79
2021/11/21 05:15:05;;;;;;;0.90;0.80;;;19.50;52.50;;;;;;4774308;30;20203;-77
2021/11/21 05:17:31;;;;;;;0.82;0.60;;;19.50;52.40;;;;;;4790145;30;20163;-79
2021/11/21 05:19:58;;;;;;;2.47;0.80;;;19.40;52.40;;;;;;4790203;30;20174;-79
2021/11/21 05:22:25;;;;;;;0.70;0.70;;;19.40;52.40;;;;;;4790411;30;20167;-79
2021/11/21 05:24:50;;;;;;;0.77;0.60;;;19.40;52.40;;;;;;4790133;30;20168;-79
2021/11/21 05:27:16;;;;;;;1.00;0.68;;;19.40;52.50;;;;;;4790289;30;20178;-79
2021/11/21 05:29:41;;;;;;;1.42;0.80;;;19.40;52.40;;;;;;4789431;29;20511;-79
2021/11/21 05:32:07;;;;;;;1.05;0.80;;;19.40;52.40;;;;;;4789990;30;20627;-79
2021/11/21 05:34:33;;;;;;;3.78;0.80;;;19.40;52.40;;;;;;4790082;30;20524;-79
2021/11/21 05:36:59;;;;;;;1.60;0.70;;;19.40;52.40;;;;;;4790151;30;20171;-79
2021/11/21 05:39:24;;;;;;;0.70;0.70;;;19.50;52.40;;;;;;4790020;30;20234;-79
2021/11/21 05:41:50;;;;;;;1.17;0.60;;;19.40;52.40;;;;;;4789781;30;20175;-79
2021/11/21 05:44:15;;;;;;;0.80;0.75;;;19.40;52.40;;;;;;4790002;30;20554;-79
2021/11/21 05:46:42;;;;;;;1.58;0.85;;;19.40;52.50;;;;;;4790004;30;20171;-79
2021/11/21 05:49:08;;;;;;;1.27;0.73;;;19.40;53.10;;;;;;4789619;30;20171;-79
2021/11/21 05:51:34;;;;;;;1.20;0.80;;;19.40;52.40;;;;;;4789944;30;20652;-79
2021/11/21 05:54:00;;;;;;;1.50;0.85;;;19.40;52.50;;;;;;4789727;30;20167;-79
2021/11/21 05:56:25;;;;;;;3.08;0.82;;;19.40;52.40;;;;;;4789854;30;20160;-79
2021/11/21 05:58:51;;;;;;;1.40;0.70;;;19.40;52.40;;;;;;4789458;30;20200;-79
2021/11/21 06:01:18;;;;;;;1.08;0.70;;;19.40;52.30;;;;;;4789470;30;20163;-79
2021/11/21 06:03:44;;;;;;;1.17;1.02;;;19.40;52.30;;;;;;4789685;30;20176;-79
2021/11/21 06:06:09;;;;;;;1.20;0.90;;;19.40;52.40;;;;;;4789153;30;20239;-79
2021/11/21 06:08:35;;;;;;;1.17;0.70;;;19.40;52.30;;;;;;4789305;30;20164;-79
2021/11/21 06:11:01;;;;;;;1.05;0.70;;;19.40;52.30;;;;;;4789317;30;20627;-78
2021/11/21 06:13:27;;;;;;;1.15;0.70;;;19.40;52.40;;;;;;4789442;30;20172;-79
2021/11/21 06:15:53;;;;;;;1.73;0.60;;;19.40;52.30;;;;;;4789525;30;20171;-79
2021/11/21 06:18:18;;;;;;;0.95;0.55;;;19.40;52.30;;;;;;4773252;30;20222;-78
2021/11/21 06:20:44;;;;;;;0.98;0.60;;;19.40;52.30;;;;;;4789386;30;20199;-79
2021/11/21 06:23:11;;;;;;;1.40;0.77;;;19.40;52.30;;;;;;4789336;30;20528;-78
2021/11/21 06:25:38;;;;;;;1.00;0.80;;;19.40;52.50;;;;;;4772927;30;20184;-78
2021/11/21 06:28:04;;;;;;;1.15;0.60;;;19.40;52.40;;;;;;4789093;30;20168;-79
2021/11/21 06:30:29;;;;;;;1.10;0.73;;;19.40;52.40;;;;;;4789037;30;20160;-78
2021/11/21 06:32:55;;;;;;;1.13;0.70;;;19.40;52.40;;;;;;4788925;30;20160;-78
2021/11/21 06:35:20;;;;;;;1.20;0.65;;;19.40;52.30;;;;;;4772921;30;20260;-79
2021/11/21 06:37:46;;;;;;;1.10;0.60;;;19.50;52.40;;;;;;4788774;30;20249;-78
2021/11/21 06:40:13;;;;;;;2.08;0.88;;;19.40;53.00;;;;;;4788779;30;20250;-78
2021/11/21 06:42:40;;;;;;;1.80;0.90;;;19.40;52.40;;;;;;4788218;30;20178;-78
2021/11/21 06:45:06;;;;;;;0.80;0.60;;;19.40;52.30;;;;;;4788510;30;20611;-78
2021/11/21 06:47:32;;;;;;;1.38;0.77;;;19.40;52.40;;;;;;4788876;30;20160;-79
2021/11/21 06:50:00;;;;;;;1.00;0.60;;;19.40;52.30;;;;;;4788995;30;20240;-79
2021/11/21 06:52:29;;;;;;;1.00;0.80;;;19.40;52.50;;;;;;4788581;30;20167;-78
2021/11/21 06:54:54;;;;;;;0.95;0.75;;;19.40;52.40;;;;;;4788729;30;20171;-78
2021/11/21 06:57:21;;;;;;;2.17;0.77;;;19.40;52.40;;;;;;4788548;30;20164;-78
2021/11/21 06:59:47;;;;;;;0.90;0.75;;;19.40;52.40;;;;;;4788534;29;20172;-78
2021/11/21 07:02:12;;;;;;;1.75;0.60;;;19.40;52.50;;;;;;4788563;30;20182;-79
2021/11/21 07:04:38;;;;;;;0.68;0.68;;;19.40;52.50;;;;;;4788479;30;20628;-78
2021/11/21 07:07:08;;;;;;;0.93;0.80;;;19.40;52.50;;;;;;4788223;30;20643;-79
2021/11/21 07:09:34;;;;;;;1.73;0.70;;;19.40;52.50;;;;;;4757727;30;20172;-79
2021/11/21 07:11:59;;;;;;;2.05;0.82;;;19.40;52.30;;;;;;4772394;30;20527;-78
2021/11/21 07:14:25;;;;;;;1.23;0.90;;;19.40;51.90;;;;;;4788601;30;20220;-78
2021/11/21 07:16:50;;;;;;;0.70;0.60;;;19.40;51.60;;;;;;4788237;30;20167;-78
2021/11/21 07:19:16;;;;;;;1.55;0.80;;;19.40;51.80;;;;;;4788481;30;20203;-78
2021/11/21 07:21:42;;;;;;;1.73;1.00;;;19.40;51.90;;;;;;4772547;30;20515;-79
2021/11/21 07:24:08;;;;;;;0.80;0.70;;;19.40;51.60;;;;;;4788529;30;20266;-78
2021/11/21 07:26:34;;;;;;;1.17;0.57;;;19.40;51.70;;;;;;4788254;30;20163;-78
2021/11/21 07:29:00;;;;;;;1.98;0.77;;;19.40;51.90;;;;;;4788163;30;20163;-78
2021/11/21 07:31:26;;;;;;;0.77;0.60;;;19.40;51.80;;;;;;4788147;29;20167;-78
2021/11/21 07:33:51;;;;;;;2.17;0.90;;;19.40;51.80;;;;;;4788418;30;20168;-78
2021/11/21 07:36:17;;;;;;;1.00;0.75;;;19.40;51.90;;;;;;4788399;30;20620;-78
2021/11/21 07:38:44;;;;;;;0.65;0.55;;;19.40;51.80;;;;;;4771996;30;20199;-78
2021/11/21 07:41:10;;;;;;;1.90;0.80;;;19.40;51.70;;;;;;4757315;30;20611;-78
2021/11/21 07:43:35;;;;;;;0.60;0.60;;;19.50;52.00;;;;;;4787960;30;20198;-78
2021/11/21 07:46:01;;;;;;;0.77;0.70;;;19.50;52.10;;;;;;4788090;30;20171;-78
2021/11/21 07:48:28;;;;;;;0.82;0.68;;;19.50;52.10;;;;;;4788277;30;20179;-78
2021/11/21 07:50:54;;;;;;;1.45;0.73;;;19.50;52.00;;;;;;4771940;30;20164;-78
2021/11/21 07:53:19;;;;;;;0.98;0.68;;;19.50;51.90;;;;;;4773599;30;20631;-79
2021/11/21 07:55:47;;;;;;;0.73;0.70;;;19.50;51.90;;;;;;4791595;30;20198;-79
2021/11/21 07:58:12;;;;;;;0.93;0.68;;;19.50;51.60;;;;;;4791712;30;20206;-79
2021/11/21 08:00:38;;;;;;;0.77;0.60;;;19.60;51.40;;;;;;4791796;30;20176;-78
2021/11/21 08:03:04;;;;;;;1.30;0.80;;;19.60;51.30;;;;;;4791460;30;20616;-79
2021/11/21 08:05:29;;;;;;;1.60;1.00;;;19.60;51.60;;;;;;4791559;29;20235;-79
2021/11/21 08:07:55;;;;;;;1.27;0.70;;;19.60;51.70;;;;;;4791225;30;20233;-79
2021/11/21 08:10:21;;;;;;;1.88;0.70;;;19.60;51.60;;;;;;4791601;30;20354;-78
2021/11/21 08:12:47;;;;;;;1.33;0.73;;;19.60;51.40;;;;;;4791385;30;20176;-78
2021/11/21 08:15:13;;;;;;;0.63;0.52;;;19.60;51.40;;;;;;4791509;30;20178;-78
2021/11/21 08:17:38;;;;;;;1.02;0.70;;;19.60;51.60;;;;;;4790745;30;20163;-78
2021/11/21 08:20:04;;;;;;;0.90;0.50;;;19.60;50.90;;;;;;4791084;30;20304;-78
2021/11/21 08:22:30;;;;;;;0.98;0.60;;;19.70;50.90;;;;;;4791285;29;20624;-78
2021/11/21 08:24:56;;;;;;;0.70;0.70;;;19.70;51.20;;;;;;4791068;29;20171;-79
2021/11/21 08:27:21;;;;;;;0.68;0.60;;;19.70;51.20;;;;;;4791177;30;20172;-78
2021/11/21 08:29:49;;;;;;;0.60;0.55;;;19.70;51.10;;;;;;4790803;30;20172;-79
2021/11/21 08:32:15;;;;;;;1.00;0.60;;;19.70;51.10;;;;;;4791141;30;20199;-78
2021/11/21 08:34:41;;;;;;;1.20;0.77;;;19.70;51.20;;;;;;4790697;30;20164;-78
2021/11/21 08:37:07;;;;;;;0.50;0.50;;;19.70;51.00;;;;;;4790994;30;20172;-79
2021/11/21 08:39:33;;;;;;;1.00;0.80;;;19.70;50.70;;;;;;4791167;30;20191;-78
2021/11/21 08:41:59;;;;;;;0.95;0.65;;;19.80;50.80;;;;;;4790646;30;20171;-78
2021/11/21 08:44:24;;;;;;;0.90;0.70;;;19.80;50.80;;;;;;4774632;30;20640;-78
2021/11/21 08:46:50;;;;;;;0.60;0.60;;;19.80;50.50;;;;;;4790758;30;20624;-78
2021/11/21 08:49:16;;;;;;;1.60;0.63;;;19.70;50.70;;;;;;4790720;29;20171;-78
2021/11/21 08:51:43;;;;;;;0.95;0.68;;;19.80;50.70;;;;;;4790836;30;20170;-79
2021/11/21 08:54:09;;;;;;;1.40;0.70;;;19.80;50.70;;;;;;4790462;30;20334;-78
2021/11/21 08:56:35;;;;;;;0.57;0.52;;;19.80;50.70;;;;;;4790650;30;20687;-78
2021/11/21 08:59:01;;;;;;;1.65;0.70;;;19.80;50.50;;;;;;4790341;30;20192;-79
2021/11/21 09:01:27;;;;;;;1.13;0.60;;;19.80;50.80;;;;;;4790255;30;20639;-78
2021/11/21 09:03:53;;;;;;;1.10;0.70;;;19.80;50.80;;;;;;4789999;29;20168;-79
2021/11/21 09:06:18;;;;;;;2.05;0.50;;;19.80;50.80;;;;;;4789536;30;20310;-78
2021/11/21 09:08:44;;;;;;;1.10;0.65;;;19.80;50.70;;;;;;4790412;30;20663;-78
2021/11/21 09:11:10;;;;;;;1.95;0.68;;;19.80;50.60;;;;;;4790313;30;20312;-78
2021/11/21 09:13:35;;;;;;;0.75;0.60;;;19.80;50.40;;;;;;4789976;30;20220;-78
2021/11/21 09:16:01;;;;;;;2.10;0.70;;;19.80;50.60;;;;;;4790346;30;20531;-78
2021/11/21 09:18:27;;;;;;;0.90;0.68;;;19.80;50.40;;;;;;4790190;30;20203;-78
2021/11/21 09:20:53;;;;;;;0.70;0.70;;;19.80;50.40;;;;;;4790257;30;20538;-78
2021/11/21 09:23:19;;;;;;;1.02;0.70;;;19.90;50.70;;;;;;4790252;30;20255;-78
2021/11/21 09:25:45;;;;;;;0.43;0.40;;;19.90;50.70;;;;;;4789926;30;20181;-78
2021/11/21 09:28:11;;;;;;;0.90;0.55;;;19.80;50.60;;;;;;4789809;30;20628;-78
2021/11/21 09:30:37;;;;;;;0.70;0.50;;;19.90;50.90;;;;;;4790026;30;20172;-79
2021/11/21 09:33:04;;;;;;;0.75;0.70;;;19.90;50.90;;;;;;4790072;30;20168;-78
2021/11/21 09:35:29;;;;;;;1.65;0.68;;;19.90;50.70;;;;;;4790557;30;20175;-78
2021/11/21 09:37:55;;;;;;;0.82;0.63;;;19.80;50.50;;;;;;4789867;30;20191;-78
2021/11/21 09:40:21;;;;;;;0.63;0.63;;;19.90;50.50;;;;;;4790249;30;20195;-78
2021/11/21 09:42:46;;;;;;;2.17;0.57;;;19.90;50.40;;;;;;4790182;30;20172;-78
2021/11/21 09:45:13;;;;;;;0.90;0.60;;;19.90;50.30;;;;;;4789592;30;20204;-78
2021/11/21 09:47:38;;;;;;;0.90;0.80;;;19.90;50.40;;;;;;4789203;30;20479;-78
2021/11/21 09:50:07;;;;;;;0.80;0.52;;;19.90;50.30;;;;;;4789513;30;20616;-78
2021/11/21 09:52:33;;;;;;;1.08;0.60;;;19.90;50.20;;;;;;4772988;30;20254;-78
2021/11/21 09:54:59;;;;;;;0.95;0.63;;;19.90;50.20;;;;;;4772569;30;20299;-78
2021/11/21 09:57:25;;;;;;;1.35;0.88;;;19.90;50.40;;;;;;4789175;30;20164;-78
2021/11/21 09:59:53;;;;;;;0.80;0.60;;;19.90;50.40;;;;;;4789551;30;20195;-78
2021/11/21 10:02:21;;;;;;;1.38;0.90;;;19.90;50.30;;;;;;4790222;30;20196;-78
2021/11/21 10:04:47;;;;;;;1.70;0.50;;;19.90;50.40;;;;;;4774136;30;20167;-78
2021/11/21 10:07:23;;;;;;;0.75;0.57;;;19.90;50.80;;;;;;4773561;30;20542;-78
2021/11/21 10:09:49;;;;;;;0.73;0.68;;;19.90;50.90;;;;;;4773617;30;20201;-79
2021/11/21 10:12:15;;;;;;;5.35;0.70;;;19.90;50.90;;;;;;4773487;30;20195;-78
2021/11/21 10:14:53;;;;;;;0.65;0.60;;;20.00;50.60;;;;;;4773237;30;20244;-78
2021/11/21 10:17:20;;;;;;;1.77;0.80;;;19.90;50.70;;;;;;4789411;29;20211;-78
2021/11/21 10:20:04;;;;;;;0.73;0.70;;;19.90;51.00;;;;;;4758583;30;20192;-78
2021/11/21 10:23:02;;;;;;;1.25;0.60;;;19.90;50.90;;;;;;4789278;30;20222;-78
2021/11/21 10:25:41;;;;;;;0.63;0.50;;;20.00;50.90;;;;;;4789523;30;20213;-78
2021/11/21 10:28:31;;;;;;;0.50;0.43;;;20.00;50.80;;;;;;4773410;30;20226;-78
2021/11/21 10:31:13;;;;;;;0.50;0.50;;;20.00;50.70;;;;;;4788808;30;20171;-78
2021/11/21 10:33:46;;;;;;;0.77;0.70;;;19.90;50.60;;;;;;4789451;30;20197;-78
2021/11/21 10:36:21;;;;;;;1.60;1.05;;;20.00;50.30;;;;;;4789733;30;20189;-79
2021/11/21 10:38:53;;;;;;;1.20;0.50;;;20.00;50.30;;;;;;4788380;30;20211;-78
2021/11/21 10:41:30;;;;;;;2.83;0.65;;;20.00;50.40;;;;;;4789937;30;20678;-78
2021/11/21 10:43:58;;;;;;;2.50;0.80;;;20.00;50.40;;;;;;4788652;30;20194;-78
2021/11/21 10:46:34;;;;;;;1.17;0.60;;;20.00;50.50;;;;;;4772966;30;20167;-78
2021/11/21 10:49:25;;;;;;;0.90;0.60;;;20.00;50.30;;;;;;4788560;30;20535;-78
2021/11/21 10:52:08;;;;;;;3.22;0.55;;;20.00;50.50;;;;;;4788317;29;20185;-78
2021/11/21 10:54:42;;;;;;;1.58;0.68;;;20.00;50.30;;;;;;4788333;30;20671;-78
2021/11/21 10:57:09;;;;;;;1.33;0.70;;;20.10;50.80;;;;;;4787962;30;20220;-77
2021/11/21 10:59:41;;;;;;;1.13;0.70;;;20.00;50.80;;;;;;4787941;30;20203;-78
2021/11/21 11:02:12;;;;;;;4.70;0.80;;;20.10;50.90;;;;;;4788027;30;20175;-78
2021/11/21 11:04:37;;;;;;;0.70;0.60;;;20.00;50.80;;;;;;4787903;30;20263;-78
2021/11/21 11:07:16;;;;;;;0.60;0.55;;;20.00;50.70;;;;;;4787721;30;20321;-78
2021/11/21 11:09:42;;;;;;;1.48;0.60;;;20.00;50.70;;;;;;4788095;30;20616;-78
2021/11/21 11:12:08;;;;;;;1.30;0.63;;;20.00;50.70;;;;;;4787822;30;20168;-78
2021/11/21 11:14:34;;;;;;;2.03;0.70;;;20.00;50.70;;;;;;4787970;30;20190;-78
2021/11/21 11:16:59;;;;;;;2.50;0.60;;;20.00;50.60;;;;;;4771589;30;20619;-78
2021/11/21 11:19:26;;;;;;;0.90;0.55;;;20.00;50.60;;;;;;4771702;30;20244;-77
2021/11/21 11:21:52;;;;;;;1.45;0.55;;;20.00;50.70;;;;;;4787898;30;20167;-78
2021/11/21 11:24:22;;;;;;;2.47;0.60;;;20.00;50.70;;;;;;4787520;30;20174;-78
2021/11/21 11:26:53;;;;;;;0.70;0.60;;;20.00;50.30;;;;;;4788435;30;20665;-78
2021/11/21 11:29:20;;;;;;;1.40;0.60;;;19.90;51.00;;;;;;4788105;30;20250;-77
2021/11/21 11:31:47;;;;;;;1.58;0.77;;;20.00;51.00;;;;;;4788066;30;20229;-78
2021/11/21 11:34:33;;;;;;;0.98;0.52;;;20.00;50.90;;;;;;4787874;30;20196;-78
2021/11/21 11:36:58;;;;;;;1.95;0.57;;;20.00;51.20;;;;;;4787712;30;20247;-78
2021/11/21 11:39:25;;;;;;;0.55;0.55;;;20.00;51.10;;;;;;4787628;30;20286;-77
2021/11/21 11:41:53;;;;;;;3.25;0.63;;;20.00;50.90;;;;;;4787642;30;20248;-77
2021/11/21 11:44:18;;;;;;;0.80;0.60;;;20.00;50.80;;;;;;4788522;30;20203;-78
2021/11/21 11:46:44;;;;;;;2.95;0.60;;;19.90;50.90;;;;;;4771583;30;20245;-77
2021/11/21 11:49:12;;;;;;;3.70;0.68;;;20.00;51.10;;;;;;4787843;30;20167;-77
2021/11/21 11:51:49;;;;;;;1.75;0.80;;;20.00;51.40;;;;;;4788163;30;20191;-78
2021/11/21 11:54:24;;;;;;;1.80;0.70;;;20.00;51.40;;;;;;4789634;30;20167;-78
2021/11/21 11:56:55;;;;;;;2.78;0.80;;;20.00;51.50;;;;;;4788164;30;20168;-77
2021/11/21 11:59:26;;;;;;;3.08;0.68;;;20.00;51.70;;;;;;4772151;30;20536;-77
2021/11/21 12:01:54;;;;;;;1.27;0.90;;;20.00;51.60;;;;;;4788120;30;20291;-77
2021/11/21 12:04:45;;;;;;;1.80;0.70;;;20.00;51.20;;;;;;4788095;30;20164;-77
2021/11/21 12:07:27;;;;;;;1.45;0.60;;;20.00;51.20;;;;;;4774682;30;20236;-77
2021/11/21 12:09:58;;;;;;;2.05;0.60;;;20.00;51.20;;;;;;4787213;30;20251;-78
2021/11/21 12:12:58;;;;;;;1.38;0.60;;;20.00;51.00;;;;;;4787049;30;20163;-77
2021/11/21 12:15:36;;;;;;;1.10;0.60;;;20.00;51.20;;;;;;4787182;30;20171;-78
2021/11/21 12:18:03;;;;;;;1.20;0.70;;;20.00;51.20;;;;;;4787060;30;20219;-77
2021/11/21 12:20:48;;;;;;;3.25;0.80;;;20.00;51.30;;;;;;4787178;30;20545;-77
2021/11/21 12:23:15;;;;;;;2.92;0.70;;;20.00;51.40;;;;;;4772653;30;20156;-78
2021/11/21 12:25:42;;;;;;;3.38;0.65;;;19.90;51.20;;;;;;4756868;30;20180;-77
2021/11/21 12:28:08;;;;;;;2.53;0.70;;;20.00;51.40;;;;;;4772739;30;20168;-77
2021/11/21 12:30:37;;;;;;;1.90;0.60;;;19.90;51.60;;;;;;4773578;30;20336;-78
2021/11/21 12:33:18;;;;;;;1.73;0.73;;;20.00;51.60;;;;;;4788305;30;20671;-78
2021/11/21 12:35:52;;;;;;;2.53;0.70;;;20.00;51.90;;;;;;4774704;30;20174;-78
2021/11/21 12:38:37;;;;;;;1.73;0.60;;;20.10;52.00;;;;;;4787878;30;20214;-78
2021/11/21 12:41:05;;;;;;;2.55;0.70;;;20.00;52.20;;;;;;4777230;30;20586;-78
2021/11/21 12:43:31;;;;;;;3.72;0.50;;;20.00;52.30;;;;;;4774485;30;20229;-77
2021/11/21 12:45:59;;;;;;;1.08;0.60;;;20.00;51.60;;;;;;4790402;30;20206;-78
2021/11/21 12:48:26;;;;;;;4.38;0.60;;;20.00;51.70;;;;;;4790001;30;20167;-77
2021/11/21 12:50:56;;;;;;;2.55;0.70;;;20.00;52.00;;;;;;4791612;30;20193;-78